Time;durP1;ratioP1;P1;durP2;ratioP2;P2;SDS_P1;SDS_P2;PMS_P1;PMS_P2;Temp;Humidity;BMP_temperature;BMP_pressure;BME280_temperature;BME280_humidity;BME280_pressure;Samples;Min_cycle;Max_cycle;Signal;HPM_P1;HPM_P2
2022/03/16 00:02:23;;;;;;;2.35;1.80;;;;;;;13.63;42.97;101131.09;1793442;78;21052;-64
2022/03/16 00:04:51;;;;;;;2.10;1.90;;;;;;;13.60;42.98;101133.58;1793167;79;21080;-65
2022/03/16 00:07:18;;;;;;;2.25;2.05;;;;;;;13.60;42.96;101142.06;1793311;79;21512;-65
2022/03/16 00:09:46;;;;;;;2.17;1.87;;;;;;;13.59;42.97;101140.41;1793219;79;21010;-64
2022/03/16 00:12:13;;;;;;;1.70;1.60;;;;;;;13.56;42.97;101135.72;1793121;79;21049;-64
2022/03/16 00:14:41;;;;;;;2.27;1.90;;;;;;;13.56;42.98;101130.88;1793244;80;20997;-65
2022/03/16 00:17:08;;;;;;;2.10;1.90;;;;;;;13.55;42.97;101126.52;1793602;80;21005;-66
2022/03/16 00:19:35;;;;;;;2.10;1.90;;;;;;;13.53;42.95;101128.00;1794284;78;21017;-65
2022/03/16 00:22:03;;;;;;;2.42;1.75;;;;;;;13.52;42.97;101126.34;1793237;80;21244;-65
2022/03/16 00:24:30;;;;;;;2.12;1.87;;;;;;;13.52;42.97;101136.16;1793147;80;21517;-66
2022/03/16 00:26:57;;;;;;;2.20;1.90;;;;;;;13.50;42.97;101131.47;1793363;80;21557;-65
2022/03/16 00:29:23;;;;;;;1.62;1.52;;;;;;;13.49;43.00;101135.97;1793334;79;21971;-65
2022/03/16 00:31:52;;;;;;;2.20;1.98;;;;;;;13.47;42.96;101137.96;1793202;79;21057;-64
2022/03/16 00:34:19;;;;;;;1.85;1.50;;;;;;;13.46;42.98;101143.45;1793169;80;21206;-65
2022/03/16 00:36:47;;;;;;;1.80;1.70;;;;;;;13.44;42.98;101144.92;1794256;78;21467;-65
2022/03/16 00:39:13;;;;;;;2.30;2.10;;;;;;;13.42;42.99;101137.57;1822558;78;21013;-65
2022/03/16 00:41:40;;;;;;;1.52;1.40;;;;;;;13.42;42.98;101134.07;1825849;78;20998;-65
2022/03/16 00:44:06;;;;;;;2.27;2.08;;;;;;;13.40;42.97;101135.55;1825968;78;21057;-64
2022/03/16 00:46:34;;;;;;;1.87;1.67;;;;;;;13.39;42.97;101129.89;1825860;78;21236;-65
2022/03/16 00:49:01;;;;;;;1.40;1.30;;;;;;;13.37;42.98;101131.87;1825814;78;21006;-65
2022/03/16 00:51:28;;;;;;;1.60;1.50;;;;;;;13.37;42.98;101133.20;1825922;78;21441;-65
2022/03/16 00:53:55;;;;;;;1.98;1.60;;;;;;;13.35;42.98;101136.52;1830162;78;21525;-64
2022/03/16 00:56:21;;;;;;;1.98;1.55;;;;;;;13.34;42.97;101134.83;1831985;78;21045;-65
2022/03/16 00:58:48;;;;;;;1.50;1.40;;;;;;;13.33;42.99;101134.50;1831921;78;21266;-65
2022/03/16 01:01:14;;;;;;;2.12;1.90;;;;;;;13.32;42.98;101140.81;1831836;78;21013;-65
2022/03/16 01:03:41;;;;;;;1.50;1.40;;;;;;;13.30;42.96;101139.63;1831989;78;20978;-65
2022/03/16 01:06:15;;;;;;;2.30;1.95;;;;;;;13.29;42.96;101131.73;1831956;78;21080;-65
2022/03/16 01:08:36;;;;;;;2.02;1.60;;;;;;;13.28;42.97;101134.08;1831008;77;20997;-64
2022/03/16 01:11:04;;;;;;;1.57;1.45;;;;;;;13.27;42.97;101131.05;1803751;77;21220;-66
2022/03/16 01:13:30;;;;;;;1.70;1.60;;;;;;;13.26;42.97;101124.05;1799417;79;21052;-66
2022/03/16 01:15:58;;;;;;;1.70;1.60;;;;;;;13.25;42.98;101123.69;1799412;79;21061;-65
2022/03/16 01:18:26;;;;;;;1.85;1.70;;;;;;;13.23;42.97;101119.87;1799501;79;21068;-65
2022/03/16 01:20:53;;;;;;;2.00;1.70;;;;;;;13.22;42.98;101116.01;1799293;79;20997;-65
2022/03/16 01:23:19;;;;;;;1.67;1.57;;;;;;;13.21;42.98;101122.32;1799238;79;21232;-65
2022/03/16 01:25:46;;;;;;;2.27;1.65;;;;;;;13.18;42.99;101113.62;1799244;79;21017;-65
2022/03/16 01:28:13;;;;;;;1.85;1.67;;;;;;;13.17;42.99;101105.30;1800458;78;21040;-65
2022/03/16 01:30:42;;;;;;;1.80;1.55;;;;;;;13.16;42.97;101114.28;1799248;79;21011;-66
2022/03/16 01:33:09;;;;;;;2.10;1.65;;;;;;;13.14;43.00;101114.93;1799329;79;21045;-65
2022/03/16 01:35:35;;;;;;;1.50;1.40;;;;;;;13.14;43.00;101111.43;1799403;79;21243;-66
2022/03/16 01:38:03;;;;;;;1.77;1.40;;;;;;;13.12;42.98;101118.25;1812633;78;20997;-66
2022/03/16 01:40:30;;;;;;;2.10;1.85;;;;;;;13.11;42.99;101114.39;1832102;77;21549;-66
2022/03/16 01:42:57;;;;;;;1.80;1.55;;;;;;;13.09;43.03;101115.86;1831930;78;21466;-65
2022/03/16 01:45:23;;;;;;;1.50;1.40;;;;;;;13.08;43.00;101117.38;1831733;78;21497;-65
2022/03/16 01:47:50;;;;;;;1.95;1.42;;;;;;;13.06;43.02;101120.19;1831998;78;21130;-64
2022/03/16 01:50:17;;;;;;;1.57;1.47;;;;;;;13.04;43.01;101116.83;1831974;78;20995;-65
2022/03/16 01:52:43;;;;;;;1.37;1.27;;;;;;;13.04;43.00;101115.97;1830591;78;20994;-65
2022/03/16 01:55:10;;;;;;;1.60;1.42;;;;;;;13.03;43.01;101117.81;1825939;78;21030;-63
2022/03/16 01:57:39;;;;;;;1.75;1.57;;;;;;;13.03;43.01;101127.65;1826021;78;21053;-65
2022/03/16 02:00:08;;;;;;;1.87;1.50;;;;;;;13.01;43.02;101121.13;1824864;78;21849;-65
2022/03/16 02:02:42;;;;;;;1.50;1.40;;;;;;;13.01;43.03;101122.96;1825950;78;21014;-67
2022/03/16 02:05:28;;;;;;;2.25;1.40;;;;;;;12.99;43.02;101131.11;1818226;78;21028;-65
2022/03/16 02:07:56;;;;;;;1.50;1.40;;;;;;;12.96;43.02;101127.39;1826255;78;21014;-66
2022/03/16 02:10:23;;;;;;;1.47;1.37;;;;;;;12.94;43.03;101122.23;1825835;78;21021;-64
2022/03/16 02:12:52;;;;;;;1.62;1.47;;;;;;;12.93;43.06;101127.20;1826218;78;21021;-65
2022/03/16 02:15:20;;;;;;;2.30;1.80;;;;;;;12.91;43.07;101134.52;1825933;78;20963;-65
2022/03/16 02:17:50;;;;;;;1.60;1.50;;;;;;;12.90;43.04;101126.66;1814663;78;20974;-64
2022/03/16 02:20:18;;;;;;;1.65;1.55;;;;;;;12.89;43.05;101126.33;1793313;79;20982;-64
2022/03/16 02:23:02;;;;;;;1.67;1.50;;;;;;;12.88;43.06;101125.97;1793464;79;20986;-65
2022/03/16 02:25:30;;;;;;;1.45;1.35;;;;;;;12.86;43.06;101127.95;1793410;80;21280;-65
2022/03/16 02:27:58;;;;;;;1.67;1.57;;;;;;;12.84;43.05;101126.77;1793404;79;21018;-65
2022/03/16 02:30:28;;;;;;;1.67;1.35;;;;;;;12.84;43.07;101129.93;1793410;79;21056;-64
2022/03/16 02:32:55;;;;;;;1.30;1.17;;;;;;;12.82;43.07;101125.24;1793199;79;21026;-64
2022/03/16 02:35:23;;;;;;;1.67;1.30;;;;;;;12.82;43.09;101129.24;1794728;78;21452;-65
2022/03/16 02:37:51;;;;;;;1.37;1.27;;;;;;;12.79;43.07;101120.55;1804066;78;21319;-65
2022/03/16 02:40:20;;;;;;;1.45;1.35;;;;;;;12.79;43.08;101126.39;1826116;78;20989;-64
2022/03/16 02:42:48;;;;;;;1.15;1.00;;;;;;;12.77;43.09;101115.86;1826146;78;21489;-66
2022/03/16 02:45:15;;;;;;;1.32;1.22;;;;;;;12.77;43.06;101126.53;1825793;78;21045;-65
2022/03/16 02:47:42;;;;;;;1.67;1.40;;;;;;;12.76;43.08;101122.17;1825982;78;20997;-65
2022/03/16 02:50:12;;;;;;;1.60;1.50;;;;;;;12.75;43.09;101124.51;1825907;78;20962;-65
2022/03/16 02:52:39;;;;;;;1.22;1.02;;;;;;;12.74;43.07;101132.66;1824828;78;21022;-64
2022/03/16 02:55:07;;;;;;;1.20;1.10;;;;;;;12.72;43.08;101139.45;1825836;78;21057;-66
2022/03/16 02:57:36;;;;;;;1.40;1.10;;;;;;;12.71;43.09;101135.13;1826142;78;20978;-65
2022/03/16 03:00:05;;;;;;;2.00;1.45;;;;;;;12.71;43.09;101132.94;1825903;78;21536;-65
2022/03/16 03:02:32;;;;;;;1.57;1.20;;;;;;;12.70;43.08;101133.94;1825775;78;21146;-65
2022/03/16 03:05:00;;;;;;;1.50;1.17;;;;;;;12.68;43.09;101142.08;1826047;78;21009;-66
2022/03/16 03:07:28;;;;;;;2.37;1.45;;;;;;;12.67;43.10;101136.42;1825840;78;21005;-66
2022/03/16 03:09:55;;;;;;;1.57;1.40;;;;;;;12.66;43.11;101133.39;1821773;78;20994;-65
2022/03/16 03:12:21;;;;;;;1.90;1.67;;;;;;;12.65;43.11;101133.53;1821301;78;20958;-64
2022/03/16 03:14:48;;;;;;;1.20;1.10;;;;;;;12.64;43.10;101127.88;1825896;78;21958;-64
2022/03/16 03:17:14;;;;;;;1.35;1.25;;;;;;;12.63;43.11;101133.67;1825730;78;21311;-64
2022/03/16 03:19:43;;;;;;;1.02;0.95;;;;;;;12.62;43.08;101133.84;1825810;78;20974;-64
2022/03/16 03:22:10;;;;;;;1.50;1.40;;;;;;;12.61;43.12;101130.31;1825847;78;21073;-65
2022/03/16 03:24:39;;;;;;;1.32;1.22;;;;;;;12.59;43.13;101130.48;1825805;78;20978;-65
2022/03/16 03:27:06;;;;;;;1.20;1.10;;;;;;;12.58;43.13;101128.80;1797127;78;21830;-65
2022/03/16 03:29:32;;;;;;;1.50;1.32;;;;;;;12.57;43.11;101132.94;1793280;80;21532;-64
2022/03/16 03:31:58;;;;;;;1.47;1.22;;;;;;;12.56;43.14;101132.60;1793483;80;21446;-65
2022/03/16 03:34:26;;;;;;;1.82;1.40;;;;;;;12.56;43.15;101133.94;1793394;79;20970;-65
2022/03/16 03:36:54;;;;;;;1.32;1.17;;;;;;;12.53;43.13;101141.72;1793301;79;20994;-65
2022/03/16 03:39:21;;;;;;;1.85;1.57;;;;;;;12.52;43.13;101134.72;1824330;78;21232;-64
2022/03/16 03:41:47;;;;;;;1.45;1.35;;;;;;;12.52;43.13;101133.89;1825775;78;20994;-65
2022/03/16 03:44:14;;;;;;;1.12;1.02;;;;;;;12.51;43.14;101134.86;1824785;78;21065;-64
2022/03/16 03:46:40;;;;;;;1.52;1.05;;;;;;;12.50;43.15;101131.86;1825825;78;21056;-65
2022/03/16 03:49:07;;;;;;;1.40;1.30;;;;;;;12.49;43.15;101140.83;1825952;78;20990;-64
2022/03/16 03:51:34;;;;;;;1.62;1.45;;;;;;;12.48;43.15;101140.50;1825645;78;21243;-65
2022/03/16 03:54:01;;;;;;;1.50;1.40;;;;;;;12.47;43.14;101142.30;1825592;78;20982;-64
2022/03/16 03:56:27;;;;;;;1.40;1.10;;;;;;;12.47;43.16;101144.14;1825792;78;21517;-65
2022/03/16 03:58:54;;;;;;;1.20;1.10;;;;;;;12.46;43.16;101150.44;1825678;78;21056;-65
2022/03/16 04:01:21;;;;;;;1.12;1.02;;;;;;;12.44;43.17;101143.09;1794122;78;21053;-65
2022/03/16 04:03:50;;;;;;;1.30;1.20;;;;;;;12.43;43.16;101142.25;1793347;79;20986;-65
2022/03/16 04:06:17;;;;;;;1.20;1.10;;;;;;;12.42;43.19;101145.92;1793249;80;21028;-66
2022/03/16 04:08:43;;;;;;;1.10;1.00;;;;;;;12.42;43.18;101147.72;1793257;80;21009;-65
2022/03/16 04:11:12;;;;;;;1.35;1.22;;;;;;;12.41;43.17;101149.56;1793418;79;20994;-64
2022/03/16 04:13:38;;;;;;;1.25;1.15;;;;;;;12.38;43.19;101144.03;1793328;80;21092;-63
2022/03/16 04:16:05;;;;;;;1.05;1.05;;;;;;;12.38;43.20;101148.03;1818260;77;21198;-65
2022/03/16 04:18:33;;;;;;;1.17;1.10;;;;;;;12.37;43.20;101147.67;1814032;79;21048;-65
2022/03/16 04:21:00;;;;;;;1.75;1.37;;;;;;;12.36;43.21;101150.47;1814224;79;21067;-64
2022/03/16 04:23:26;;;;;;;1.10;1.00;;;;;;;12.34;43.21;101145.31;1813958;79;21055;-64
2022/03/16 04:25:53;;;;;;;1.50;1.32;;;;;;;12.34;43.22;101134.66;1814259;79;21056;-64
2022/03/16 04:28:20;;;;;;;1.30;1.20;;;;;;;12.32;43.23;101139.30;1814100;79;21249;-65
2022/03/16 04:30:47;;;;;;;1.22;1.12;;;;;;;12.33;43.24;101144.12;1813997;79;21012;-65
2022/03/16 04:33:14;;;;;;;1.40;1.30;;;;;;;12.32;43.24;101153.95;1812437;78;21073;-65
2022/03/16 04:35:40;;;;;;;1.10;1.00;;;;;;;12.32;43.23;101158.42;1793383;79;21520;-65
2022/03/16 04:38:08;;;;;;;1.30;1.20;;;;;;;12.30;43.23;101154.56;1807871;78;21502;-64
2022/03/16 04:40:36;;;;;;;1.20;1.10;;;;;;;12.30;43.24;101164.38;1825968;78;21242;-65
2022/03/16 04:43:03;;;;;;;1.30;1.20;;;;;;;12.29;43.25;101152.06;1825825;78;21256;-65
2022/03/16 04:45:31;;;;;;;1.30;1.20;;;;;;;12.27;43.25;101158.86;1825850;78;21145;-65
2022/03/16 04:47:57;;;;;;;1.10;1.00;;;;;;;12.27;43.25;101162.86;1825975;78;21014;-65
2022/03/16 04:50:24;;;;;;;1.55;1.30;;;;;;;12.27;43.25;101150.88;1824623;78;21022;-66
2022/03/16 04:52:51;;;;;;;1.40;1.10;;;;;;;12.26;43.26;101159.83;1825935;78;21273;-65
2022/03/16 04:55:17;;;;;;;1.45;1.20;;;;;;;12.26;43.28;101155.84;1825786;78;20988;-65
2022/03/16 04:57:45;;;;;;;1.15;1.02;;;;;;;12.26;43.27;101158.50;1826126;78;20986;-65
2022/03/16 05:00:13;;;;;;;1.47;1.30;;;;;;;12.26;43.30;101157.67;1825865;78;21635;-65
2022/03/16 05:02:41;;;;;;;1.30;1.20;;;;;;;12.26;43.28;101151.01;1825981;78;21033;-65
2022/03/16 05:05:10;;;;;;;1.20;1.10;;;;;;;12.26;43.29;101163.00;1825861;78;21232;-65
2022/03/16 05:07:38;;;;;;;1.55;1.12;;;;;;;12.25;43.31;101162.66;1824685;78;21079;-64
2022/03/16 05:10:07;;;;;;;1.07;0.98;;;;;;;12.25;43.31;101174.66;1825945;78;21493;-64
2022/03/16 05:12:44;;;;;;;1.50;1.20;;;;;;;12.24;43.33;101163.13;1826147;78;21022;-65
2022/03/16 05:15:19;;;;;;;1.40;1.27;;;;;;;12.24;43.33;101169.80;1825850;78;21072;-65
2022/03/16 05:17:47;;;;;;;1.17;1.07;;;;;;;12.24;43.34;101173.80;1836399;77;21013;-65
2022/03/16 05:20:14;;;;;;;2.12;1.32;;;;;;;12.24;43.34;101179.13;1851002;77;21029;-65
2022/03/16 05:22:52;;;;;;;1.92;1.37;;;;;;;12.25;43.34;101184.81;1820929;78;21016;-64
2022/03/16 05:25:23;;;;;;;1.60;1.50;;;;;;;12.25;43.34;101183.48;1803022;78;21029;-65
2022/03/16 05:27:51;;;;;;;1.50;1.30;;;;;;;12.25;43.35;101181.31;1793868;80;20977;-65
2022/03/16 05:30:20;;;;;;;1.52;1.35;;;;;;;12.26;43.34;101188.31;1793320;80;21091;-66
2022/03/16 05:32:46;;;;;;;1.42;1.32;;;;;;;12.26;43.35;101186.98;1793344;79;21470;-65
2022/03/16 05:35:14;;;;;;;1.60;1.40;;;;;;;12.27;43.35;101182.02;1773634;80;21033;-64
2022/03/16 05:37:41;;;;;;;1.47;1.30;;;;;;;12.27;43.34;101188.17;1801946;78;20998;-64
2022/03/16 05:40:09;;;;;;;1.72;1.50;;;;;;;12.28;43.33;101185.84;1825827;78;21021;-65
2022/03/16 05:42:36;;;;;;;1.95;1.42;;;;;;;12.29;43.36;101186.20;1824637;78;21862;-65
2022/03/16 05:45:06;;;;;;;1.80;1.50;;;;;;;12.29;43.36;101180.05;1825839;78;21017;-64
2022/03/16 05:47:32;;;;;;;2.00;1.62;;;;;;;12.32;43.36;101190.39;1825783;78;21017;-65
2022/03/16 05:49:59;;;;;;;1.22;1.12;;;;;;;12.31;43.33;101192.22;1826094;78;20958;-65
2022/03/16 05:52:26;;;;;;;1.10;1.00;;;;;;;12.31;43.34;101184.73;1825800;78;21009;-65
2022/03/16 05:54:54;;;;;;;1.30;1.20;;;;;;;12.32;43.35;101188.59;1825816;76;21224;-64
2022/03/16 05:57:21;;;;;;;1.60;1.35;;;;;;;12.33;43.35;101184.92;1825669;78;21002;-65
2022/03/16 05:59:49;;;;;;;1.55;1.45;;;;;;;12.35;43.35;101196.78;1824667;78;21033;-66
2022/03/16 06:02:16;;;;;;;1.47;1.37;;;;;;;12.35;43.34;101198.95;1825726;78;21026;-65
2022/03/16 06:04:46;;;;;;;1.60;1.50;;;;;;;12.36;43.33;101189.98;1825867;78;21049;-65
2022/03/16 06:07:12;;;;;;;1.92;1.50;;;;;;;12.38;43.32;101193.81;1825854;78;21142;-65
2022/03/16 06:09:40;;;;;;;1.47;1.37;;;;;;;12.38;43.32;101192.01;1826172;78;21045;-65
2022/03/16 06:12:08;;;;;;;1.72;1.47;;;;;;;12.39;43.28;101201.66;1825822;78;20998;-65
2022/03/16 06:14:35;;;;;;;1.85;1.50;;;;;;;12.42;43.31;101203.69;1825799;78;20982;-65
2022/03/16 06:17:04;;;;;;;1.60;1.50;;;;;;;12.42;43.30;101209.89;1824587;78;21493;-64
2022/03/16 06:19:30;;;;;;;1.72;1.52;;;;;;;12.44;43.29;101211.05;1826043;78;21086;-64
2022/03/16 06:21:57;;;;;;;1.70;1.30;;;;;;;12.44;43.26;101203.05;1826167;78;20986;-66
2022/03/16 06:24:23;;;;;;;1.37;1.27;;;;;;;12.44;43.28;101205.72;1825770;78;21016;-64
2022/03/16 06:26:51;;;;;;;1.50;1.20;;;;;;;12.47;43.27;101213.44;1823208;78;21072;-64
2022/03/16 06:29:17;;;;;;;1.92;1.52;;;;;;;12.47;43.24;101210.27;1815589;78;21071;-65
2022/03/16 06:31:44;;;;;;;1.60;1.50;;;;;;;12.49;43.24;101211.47;1813870;79;21238;-66
2022/03/16 06:34:10;;;;;;;2.20;1.42;;;;;;;12.51;43.24;101204.16;1795630;78;21017;-65
2022/03/16 06:36:37;;;;;;;2.35;1.77;;;;;;;12.52;43.23;101208.52;1793371;80;21001;-66
2022/03/16 06:39:03;;;;;;;1.30;1.20;;;;;;;12.53;43.20;101215.52;1793272;80;21216;-65
2022/03/16 06:41:31;;;;;;;1.72;1.55;;;;;;;12.55;43.19;101218.38;1793269;79;21029;-66
2022/03/16 06:43:57;;;;;;;2.40;1.40;;;;;;;12.57;43.16;101214.24;1793361;80;21251;-65
2022/03/16 06:46:24;;;;;;;1.30;1.20;;;;;;;12.57;43.17;101223.10;1793173;80;21061;-66
2022/03/16 06:48:51;;;;;;;1.50;1.37;;;;;;;12.59;43.15;101221.13;1793374;79;21049;-65
2022/03/16 06:51:17;;;;;;;2.15;1.62;;;;;;;12.60;43.14;101216.63;1794428;78;21473;-66
2022/03/16 06:53:45;;;;;;;1.50;1.40;;;;;;;12.62;43.13;101219.98;1793414;80;21485;-67
2022/03/16 06:56:11;;;;;;;1.95;1.50;;;;;;;12.64;43.12;101222.02;1798799;79;22146;-65
2022/03/16 06:58:38;;;;;;;1.30;1.20;;;;;;;12.65;43.12;101222.84;1799098;79;21025;-65
2022/03/16 07:01:04;;;;;;;1.72;1.40;;;;;;;12.66;43.10;101226.70;1799121;79;21025;-66
2022/03/16 07:03:31;;;;;;;1.45;1.35;;;;;;;12.67;43.11;101231.06;1799371;79;21044;-66
2022/03/16 07:05:59;;;;;;;2.05;1.60;;;;;;;12.69;43.09;101222.43;1800065;78;21553;-65
2022/03/16 07:08:26;;;;;;;1.75;1.40;;;;;;;12.70;43.09;101220.09;1799075;79;21203;-64
2022/03/16 07:10:52;;;;;;;2.33;1.52;;;;;;;12.70;43.07;101225.42;1799276;79;21013;-65
2022/03/16 07:13:20;;;;;;;1.37;1.27;;;;;;;12.73;43.10;101243.81;1799127;79;21516;-65
2022/03/16 07:15:47;;;;;;;1.62;1.40;;;;;;;12.74;43.07;101245.48;1799156;79;21041;-65
2022/03/16 07:18:14;;;;;;;1.20;1.10;;;;;;;12.75;43.07;101243.17;1815251;78;21018;-64
2022/03/16 07:20:42;;;;;;;1.40;1.30;;;;;;;12.76;43.08;101234.17;1831890;77;21500;-65
2022/03/16 07:23:11;;;;;;;1.50;1.40;;;;;;;12.78;43.06;101232.70;1830820;78;21068;-65
2022/03/16 07:25:39;;;;;;;1.75;1.40;;;;;;;12.79;43.07;101234.39;1832111;77;21615;-65
2022/03/16 07:28:06;;;;;;;1.37;1.27;;;;;;;12.81;43.06;101236.92;1832137;77;20958;-65
2022/03/16 07:30:33;;;;;;;1.42;1.07;;;;;;;12.82;43.04;101243.41;1831977;78;20977;-65
2022/03/16 07:33:00;;;;;;;1.42;1.32;;;;;;;12.84;43.04;101237.44;1831858;78;21474;-65
2022/03/16 07:35:27;;;;;;;1.60;1.50;;;;;;;12.86;43.01;101242.63;1831712;78;20974;-66
2022/03/16 07:37:56;;;;;;;1.85;1.40;;;;;;;12.87;43.02;101248.33;1832024;77;21517;-65
2022/03/16 07:40:23;;;;;;;1.70;1.22;;;;;;;12.88;43.02;101238.83;1825822;78;21114;-66
2022/03/16 07:42:51;;;;;;;1.67;1.27;;;;;;;12.89;42.98;101240.52;1799334;79;21548;-66
2022/03/16 07:45:18;;;;;;;1.30;1.20;;;;;;;12.91;43.01;101230.54;1799074;79;21151;-65
2022/03/16 07:47:49;;;;;;;1.22;1.10;;;;;;;12.93;43.00;101228.56;1799058;79;20981;-65
2022/03/16 07:50:16;;;;;;;1.45;1.22;;;;;;;12.95;43.00;101232.42;1799144;79;21021;-66
2022/03/16 07:52:43;;;;;;;1.30;1.20;;;;;;;12.96;42.99;101232.28;1799178;79;21156;-65
2022/03/16 07:55:10;;;;;;;2.55;1.15;;;;;;;12.97;42.97;101233.12;1798954;79;21017;-67
2022/03/16 07:57:37;;;;;;;1.57;1.32;;;;;;;12.99;42.97;101234.64;1800183;78;21240;-66
2022/03/16 08:00:06;;;;;;;1.20;1.10;;;;;;;13.00;42.96;101231.50;1799061;79;21678;-65
2022/03/16 08:02:34;;;;;;;1.65;1.40;;;;;;;13.02;42.96;101240.66;1799315;79;21032;-66
2022/03/16 08:05:01;;;;;;;1.30;1.20;;;;;;;13.03;42.94;101236.52;1799236;79;21025;-65
2022/03/16 08:09:52;;;;;;;2.00;1.50;;;;;;;13.08;42.97;101226.77;1870351;76;28095;-67
2022/03/16 08:12:19;;;;;;;1.95;1.75;;;;;;;13.07;42.95;101237.07;1826505;78;21019;-65
2022/03/16 08:14:45;;;;;;;1.30;1.20;;;;;;;13.08;42.96;101227.59;1816110;78;21207;-67
2022/03/16 08:17:12;;;;;;;1.67;1.57;;;;;;;13.10;42.92;101235.45;1796081;78;20977;-66
2022/03/16 08:19:38;;;;;;;1.52;1.30;;;;;;;13.12;42.93;101238.81;1826807;78;20954;-66
2022/03/16 08:22:05;;;;;;;1.40;1.30;;;;;;;13.14;42.93;101232.33;1826579;78;21552;-66
2022/03/16 08:24:32;;;;;;;1.52;1.42;;;;;;;13.15;42.94;101231.36;1826610;78;21033;-65
2022/03/16 08:26:59;;;;;;;1.65;1.52;;;;;;;13.18;42.93;101246.22;1826532;78;21198;-66
2022/03/16 08:29:26;;;;;;;1.52;1.42;;;;;;;13.21;42.93;101238.41;1826449;78;21051;-64
2022/03/16 08:31:54;;;;;;;1.50;1.40;;;;;;;13.22;42.92;101231.59;1825761;78;20966;-66
2022/03/16 08:34:20;;;;;;;1.65;1.50;;;;;;;13.24;42.92;101230.94;1826688;78;21009;-65
2022/03/16 08:36:47;;;;;;;2.30;1.57;;;;;;;13.29;42.93;101231.81;1826208;78;21045;-66
2022/03/16 08:39:13;;;;;;;1.50;1.40;;;;;;;13.32;42.94;101235.56;1819515;78;21213;-66
2022/03/16 08:41:40;;;;;;;1.52;1.40;;;;;;;13.34;42.95;101234.41;1826726;78;21530;-65
2022/03/16 08:44:08;;;;;;;2.22;1.82;;;;;;;13.38;42.94;101229.63;1826463;78;21053;-65
2022/03/16 08:46:34;;;;;;;1.85;1.70;;;;;;;13.42;42.95;101235.50;1826398;78;21056;-65
2022/03/16 08:49:01;;;;;;;1.40;1.30;;;;;;;13.46;42.97;101234.20;1812503;78;20993;-64
2022/03/16 08:51:27;;;;;;;2.02;1.60;;;;;;;13.48;42.92;101226.41;1793990;79;21236;-65
2022/03/16 08:53:54;;;;;;;1.90;1.60;;;;;;;13.53;42.94;101237.97;1794024;80;21104;-65
2022/03/16 08:56:21;;;;;;;1.82;1.52;;;;;;;13.56;42.94;101229.16;1793963;80;21064;-65
2022/03/16 08:58:50;;;;;;;1.32;1.22;;;;;;;13.60;43.01;101232.84;1794037;79;21077;-66
2022/03/16 09:01:18;;;;;;;1.55;1.45;;;;;;;13.65;43.02;101235.41;1793909;79;21060;-66
2022/03/16 09:03:44;;;;;;;1.55;1.45;;;;;;;13.69;42.98;101236.78;1794068;79;21264;-65
2022/03/16 09:06:11;;;;;;;1.62;1.37;;;;;;;13.73;43.07;101240.85;1795300;78;21001;-65
2022/03/16 09:08:38;;;;;;;1.80;1.62;;;;;;;13.78;43.00;101239.05;1793903;78;20997;-65
2022/03/16 09:11:04;;;;;;;2.12;1.62;;;;;;;13.82;42.97;101232.91;1794525;80;21037;-65
2022/03/16 09:13:34;;;;;;;1.75;1.32;;;;;;;13.87;42.93;101235.47;1776815;80;21057;-64
2022/03/16 09:16:01;;;;;;;1.70;1.60;;;;;;;13.91;42.93;101240.84;1794342;80;21227;-63
2022/03/16 09:18:29;;;;;;;1.45;1.35;;;;;;;13.96;42.95;101236.37;1813362;78;21041;-66
2022/03/16 09:20:56;;;;;;;1.32;1.22;;;;;;;14.01;42.91;101246.11;1826299;78;21553;-65
2022/03/16 09:23:22;;;;;;;1.85;1.52;;;;;;;14.08;42.90;101250.33;1825127;78;20997;-65
2022/03/16 09:25:49;;;;;;;1.27;1.17;;;;;;;14.12;42.98;101240.53;1826193;78;21002;-67
2022/03/16 09:28:15;;;;;;;1.20;1.10;;;;;;;14.19;43.12;101234.05;1826013;78;21204;-66
2022/03/16 09:30:42;;;;;;;1.47;1.37;;;;;;;14.26;43.28;101230.27;1826193;78;21002;-66
2022/03/16 09:33:09;;;;;;;1.50;1.40;;;;;;;14.32;43.42;101239.83;1826190;78;21049;-65
2022/03/16 09:35:36;;;;;;;1.72;1.55;;;;;;;14.39;43.38;101240.54;1826407;78;21065;-66
2022/03/16 09:38:02;;;;;;;1.30;1.20;;;;;;;14.46;43.27;101235.75;1826544;78;21021;-65
2022/03/16 09:40:29;;;;;;;1.57;1.47;;;;;;;14.53;43.21;101246.16;1825096;78;21447;-66
2022/03/16 09:42:57;;;;;;;1.82;1.30;;;;;;;14.60;43.20;101234.36;1826033;78;21556;-67
2022/03/16 09:45:24;;;;;;;1.35;1.25;;;;;;;14.69;43.39;101245.95;1826073;78;20990;-65
2022/03/16 09:47:50;;;;;;;1.57;1.20;;;;;;;14.75;43.29;101246.66;1826083;78;21021;-65
2022/03/16 09:50:20;;;;;;;1.92;1.60;;;;;;;14.84;43.44;101246.22;1826099;78;20982;-67
2022/03/16 09:52:47;;;;;;;1.82;1.42;;;;;;;14.90;43.60;101242.39;1826121;78;21132;-66
2022/03/16 09:55:17;;;;;;;1.40;1.30;;;;;;;14.99;43.63;101245.95;1826095;78;21564;-66
2022/03/16 09:57:44;;;;;;;1.70;1.35;;;;;;;15.07;43.62;101241.14;1802355;78;21021;-65
2022/03/16 10:00:15;;;;;;;1.40;1.30;;;;;;;15.16;43.70;101250.02;1793547;79;21060;-65
2022/03/16 10:02:41;;;;;;;1.62;1.32;;;;;;;15.24;43.68;101246.89;1793744;79;21005;-66
2022/03/16 10:05:09;;;;;;;1.10;1.00;;;;;;;15.32;43.58;101254.95;1793732;79;21545;-65
2022/03/16 10:07:37;;;;;;;1.32;1.22;;;;;;;15.41;43.49;101257.64;1793620;78;21041;-65
2022/03/16 10:15:39;;;;;;;1.50;1.40;;;;;;;15.67;43.29;101250.34;1782539;80;21006;-65
2022/03/16 10:18:07;;;;;;;1.40;1.30;;;;;;;15.76;43.25;101260.63;1796648;79;21245;-65
2022/03/16 10:20:39;;;;;;;1.20;1.10;;;;;;;15.86;43.11;101249.75;1814583;78;21017;-65
2022/03/16 10:23:14;;;;;;;1.62;1.30;;;;;;;15.95;43.08;101250.58;1814716;78;21061;-65
2022/03/16 10:25:45;;;;;;;2.70;1.60;;;;;;;16.05;42.96;101251.24;1814859;79;21034;-65
2022/03/16 10:28:31;;;;;;;1.47;1.37;;;;;;;16.14;42.83;101244.05;1814648;78;21014;-66
2022/03/16 10:31:05;;;;;;;1.07;0.98;;;;;;;16.23;42.72;101254.61;1813643;79;21279;-65
2022/03/16 10:33:35;;;;;;;1.27;1.17;;;;;;;16.36;42.63;101257.27;1814447;79;21002;-66
2022/03/16 10:36:11;;;;;;;1.40;1.30;;;;;;;16.45;42.54;101254.92;1814600;78;21010;-66
2022/03/16 10:38:45;;;;;;;1.60;1.47;;;;;;;16.55;42.46;101252.88;1814675;78;21991;-65
2022/03/16 10:47:22;;;;;;;1.20;1.10;;;;;;;16.85;42.27;101259.39;1813346;79;20982;-65
2022/03/16 10:50:07;;;;;;;1.47;1.17;;;;;;;16.96;42.19;101254.17;1808579;78;21540;-65
2022/03/16 10:52:36;;;;;;;1.55;1.05;;;;;;;17.06;42.16;101258.82;1782515;79;21038;-65
2022/03/16 10:55:04;;;;;;;1.17;1.07;;;;;;;17.16;42.12;101252.41;1782509;79;21045;-65
2022/03/16 10:57:32;;;;;;;1.42;1.20;;;;;;;17.26;42.09;101261.92;1782683;79;21098;-65
2022/03/16 10:59:59;;;;;;;1.70;1.60;;;;;;;17.35;42.04;101254.67;1782383;80;21143;-67
2022/03/16 11:02:30;;;;;;;1.47;1.37;;;;;;;17.45;42.02;101257.14;1782488;80;20998;-65
2022/03/16 11:04:54;;;;;;;1.37;1.27;;;;;;;17.56;41.97;101250.51;1795020;79;21007;-65
2022/03/16 11:07:21;;;;;;;1.40;1.22;;;;;;;17.65;41.93;101244.94;1814493;79;21159;-66
2022/03/16 11:09:48;;;;;;;1.27;1.17;;;;;;;17.76;41.87;101250.39;1814538;78;21201;-66
2022/03/16 11:15:01;;;;;;;1.80;1.10;;;;;;;17.96;41.76;101258.83;1814584;79;20991;-66
2022/03/16 11:17:28;;;;;;;1.30;1.20;;;;;;;18.05;41.68;101249.70;1814447;78;21014;-65
2022/03/16 11:19:56;;;;;;;1.45;1.35;;;;;;;18.17;41.64;101248.75;1814565;79;21013;-65
2022/03/16 11:22:33;;;;;;;1.35;1.22;;;;;;;18.26;41.57;101249.02;1813656;78;21216;-65
2022/03/16 11:25:14;;;;;;;1.32;1.22;;;;;;;18.36;41.55;101248.75;1801232;79;21049;-66
2022/03/16 11:27:52;;;;;;;1.50;1.40;;;;;;;18.48;41.49;101246.45;1814727;79;20994;-65
2022/03/16 11:30:33;;;;;;;1.10;1.10;;;;;;;18.58;41.46;101253.77;1814718;78;21022;-65
2022/03/16 11:33:08;;;;;;;1.12;1.10;;;;;;;18.69;41.42;101244.91;1814774;78;21569;-66
2022/03/16 11:35:44;;;;;;;1.25;1.15;;;;;;;18.81;41.42;101252.87;1814888;79;21909;-66
2022/03/16 11:38:13;;;;;;;1.12;1.10;;;;;;;18.92;41.36;101246.20;1813215;79;21002;-65
2022/03/16 11:40:50;;;;;;;1.20;1.10;;;;;;;19.02;41.30;101251.61;1814511;79;21030;-66
2022/03/16 11:43:24;;;;;;;1.40;1.30;;;;;;;19.13;41.25;101246.78;1814430;78;21007;-66
2022/03/16 11:45:54;;;;;;;1.30;1.20;;;;;;;19.24;41.17;101247.66;1814832;79;26505;-66